sensor_id;sensor_type;location;lat;lon;timestamp;temperature;humidity
31379;DHT22;61664;48.112;11.662;2023-03-23T00:01:12;13.50;49.00
31379;DHT22;61664;48.112;11.662;2023-03-23T00:03:40;13.50;49.10
31379;DHT22;61664;48.112;11.662;2023-03-23T00:06:09;13.50;49.20
31379;DHT22;61664;48.112;11.662;2023-03-23T00:08:37;13.50;49.20
31379;DHT22;61664;48.112;11.662;2023-03-23T00:11:21;13.40;49.20
31379;DHT22;61664;48.112;11.662;2023-03-23T00:13:50;13.40;49.10
31379;DHT22;61664;48.112;11.662;2023-03-23T00:16:18;13.40;49.40
31379;DHT22;61664;48.112;11.662;2023-03-23T00:19:00;13.40;49.50
31379;DHT22;61664;48.112;11.662;2023-03-23T00:21:33;13.40;49.50
31379;DHT22;61664;48.112;11.662;2023-03-23T00:26:32;13.40;49.70
31379;DHT22;61664;48.112;11.662;2023-03-23T00:29:01;13.40;49.80
31379;DHT22;61664;48.112;11.662;2023-03-23T00:31:30;13.40;49.90
31379;DHT22;61664;48.112;11.662;2023-03-23T00:34:03;13.40;50.00
31379;DHT22;61664;48.112;11.662;2023-03-23T00:36:32;13.40;49.90
31379;DHT22;61664;48.112;11.662;2023-03-23T00:39:01;13.40;50.00
31379;DHT22;61664;48.112;11.662;2023-03-23T00:41:30;13.40;50.50
31379;DHT22;61664;48.112;11.662;2023-03-23T00:43:58;13.40;50.10
31379;DHT22;61664;48.112;11.662;2023-03-23T00:46:27;13.40;50.20
31379;DHT22;61664;48.112;11.662;2023-03-23T00:48:54;13.40;50.20
31379;DHT22;61664;48.112;11.662;2023-03-23T00:51:23;13.30;50.30
31379;DHT22;61664;48.112;11.662;2023-03-23T00:53:49;13.40;50.40
31379;DHT22;61664;48.112;11.662;2023-03-23T00:56:15;13.40;50.50
31379;DHT22;61664;48.112;11.662;2023-03-23T00:58:41;13.40;50.50
31379;DHT22;61664;48.112;11.662;2023-03-23T01:01:08;13.40;50.60
31379;DHT22;61664;48.112;11.662;2023-03-23T01:03:35;13.40;50.70
31379;DHT22;61664;48.112;11.662;2023-03-23T01:06:07;13.30;50.70
31379;DHT22;61664;48.112;11.662;2023-03-23T01:08:39;13.40;50.70
31379;DHT22;61664;48.112;11.662;2023-03-23T01:11:14;13.40;50.80
31379;DHT22;61664;48.112;11.662;2023-03-23T01:13:42;13.40;50.80
31379;DHT22;61664;48.112;11.662;2023-03-23T01:16:09;13.40;50.90
31379;DHT22;61664;48.112;11.662;2023-03-23T01:18:35;13.40;50.90
31379;DHT22;61664;48.112;11.662;2023-03-23T01:21:20;13.40;51.00
31379;DHT22;61664;48.112;11.662;2023-03-23T01:23:47;13.40;50.70
31379;DHT22;61664;48.112;11.662;2023-03-23T01:26:16;13.40;51.00
31379;DHT22;61664;48.112;11.662;2023-03-23T01:28:48;13.40;51.10
31379;DHT22;61664;48.112;11.662;2023-03-23T01:31:16;13.40;51.20
31379;DHT22;61664;48.112;11.662;2023-03-23T01:33:46;13.40;51.20
31379;DHT22;61664;48.112;11.662;2023-03-23T01:38:41;13.40;51.30
31379;DHT22;61664;48.112;11.662;2023-03-23T01:41:09;13.40;51.30
31379;DHT22;61664;48.112;11.662;2023-03-23T01:43:52;13.50;51.40
31379;DHT22;61664;48.112;11.662;2023-03-23T01:46:36;13.40;51.40
31379;DHT22;61664;48.112;11.662;2023-03-23T01:49:07;13.40;51.30
31379;DHT22;61664;48.112;11.662;2023-03-23T01:51:42;13.40;51.40
31379;DHT22;61664;48.112;11.662;2023-03-23T01:54:14;13.40;51.50
31379;DHT22;61664;48.112;11.662;2023-03-23T01:56:56;13.40;51.60
31379;DHT22;61664;48.112;11.662;2023-03-23T01:59:27;13.40;51.70
31379;DHT22;61664;48.112;11.662;2023-03-23T02:01:54;13.40;51.80
31379;DHT22;61664;48.112;11.662;2023-03-23T02:04:23;13.40;51.80
31379;DHT22;61664;48.112;11.662;2023-03-23T02:06:54;13.40;51.80
31379;DHT22;61664;48.112;11.662;2023-03-23T02:09:25;13.40;51.80
31379;DHT22;61664;48.112;11.662;2023-03-23T02:11:52;13.40;51.80
31379;DHT22;61664;48.112;11.662;2023-03-23T02:14:20;13.40;51.90
31379;DHT22;61664;48.112;11.662;2023-03-23T02:17:08;13.40;51.90
31379;DHT22;61664;48.112;11.662;2023-03-23T02:22:58;13.40;51.80
31379;DHT22;61664;48.112;11.662;2023-03-23T02:35:00;13.30;51.70
31379;DHT22;61664;48.112;11.662;2023-03-23T02:37:37;13.30;52.10
31379;DHT22;61664;48.112;11.662;2023-03-23T02:40:24;13.30;52.20
31379;DHT22;61664;48.112;11.662;2023-03-23T02:42:54;13.20;52.20
31379;DHT22;61664;48.112;11.662;2023-03-23T02:45:24;13.20;52.40
31379;DHT22;61664;48.112;11.662;2023-03-23T02:47:54;13.10;52.40
31379;DHT22;61664;48.112;11.662;2023-03-23T02:50:24;13.10;52.50
31379;DHT22;61664;48.112;11.662;2023-03-23T02:52:54;13.10;52.50
31379;DHT22;61664;48.112;11.662;2023-03-23T02:55:23;13.10;52.60
31379;DHT22;61664;48.112;11.662;2023-03-23T02:57:52;13.20;51.60
31379;DHT22;61664;48.112;11.662;2023-03-23T03:00:19;13.10;52.60
31379;DHT22;61664;48.112;11.662;2023-03-23T03:02:48;13.10;52.70
31379;DHT22;61664;48.112;11.662;2023-03-23T03:05:26;13.00;52.80
31379;DHT22;61664;48.112;11.662;2023-03-23T03:08:06;13.00;52.80
31379;DHT22;61664;48.112;11.662;2023-03-23T03:11:03;13.00;52.90
31379;DHT22;61664;48.112;11.662;2023-03-23T03:14:35;13.00;53.00
31379;DHT22;61664;48.112;11.662;2023-03-23T03:19:31;12.90;53.00
31379;DHT22;61664;48.112;11.662;2023-03-23T03:22:01;12.90;53.00
31379;DHT22;61664;48.112;11.662;2023-03-23T03:24:29;13.00;53.20
31379;DHT22;61664;48.112;11.662;2023-03-23T03:26:59;12.90;53.20
31379;DHT22;61664;48.112;11.662;2023-03-23T03:29:33;12.90;53.30
31379;DHT22;61664;48.112;11.662;2023-03-23T03:32:04;12.90;53.30
31379;DHT22;61664;48.112;11.662;2023-03-23T03:34:33;12.90;53.30
31379;DHT22;61664;48.112;11.662;2023-03-23T03:37:00;12.90;53.30
31379;DHT22;61664;48.112;11.662;2023-03-23T03:39:27;12.90;53.30
31379;DHT22;61664;48.112;11.662;2023-03-23T03:41:53;12.90;53.30
31379;DHT22;61664;48.112;11.662;2023-03-23T03:44:21;12.90;53.40
31379;DHT22;61664;48.112;11.662;2023-03-23T03:46:47;12.90;53.50
31379;DHT22;61664;48.112;11.662;2023-03-23T03:49:13;12.80;53.40
31379;DHT22;61664;48.112;11.662;2023-03-23T03:51:39;12.90;53.60
31379;DHT22;61664;48.112;11.662;2023-03-23T03:54:06;12.80;53.50
31379;DHT22;61664;48.112;11.662;2023-03-23T03:56:32;12.80;53.60
31379;DHT22;61664;48.112;11.662;2023-03-23T03:59:02;12.80;53.60
31379;DHT22;61664;48.112;11.662;2023-03-23T04:01:28;12.80;53.70
31379;DHT22;61664;48.112;11.662;2023-03-23T04:03:55;12.80;53.80
31379;DHT22;61664;48.112;11.662;2023-03-23T04:06:21;12.80;53.90
31379;DHT22;61664;48.112;11.662;2023-03-23T04:08:47;12.80;53.90
31379;DHT22;61664;48.112;11.662;2023-03-23T04:11:14;12.80;54.10
31379;DHT22;61664;48.112;11.662;2023-03-23T04:13:41;12.80;54.00
31379;DHT22;61664;48.112;11.662;2023-03-23T04:16:07;12.80;54.00
31379;DHT22;61664;48.112;11.662;2023-03-23T04:18:33;12.90;54.10
31379;DHT22;61664;48.112;11.662;2023-03-23T04:21:01;12.80;54.00
31379;DHT22;61664;48.112;11.662;2023-03-23T04:23:29;12.80;54.10
31379;DHT22;61664;48.112;11.662;2023-03-23T04:25:59;12.80;54.10
31379;DHT22;61664;48.112;11.662;2023-03-23T04:28:25;12.90;54.10
31379;DHT22;61664;48.112;11.662;2023-03-23T04:30:53;12.90;54.10
31379;DHT22;61664;48.112;11.662;2023-03-23T04:33:22;12.90;54.10
31379;DHT22;61664;48.112;11.662;2023-03-23T04:35:54;12.80;54.10
31379;DHT22;61664;48.112;11.662;2023-03-23T04:38:27;12.90;54.10
31379;DHT22;61664;48.112;11.662;2023-03-23T04:40:55;12.90;54.20
31379;DHT22;61664;48.112;11.662;2023-03-23T04:43:22;12.80;54.20
31379;DHT22;61664;48.112;11.662;2023-03-23T04:45:57;12.80;54.20
31379;DHT22;61664;48.112;11.662;2023-03-23T04:48:25;12.80;54.20
31379;DHT22;61664;48.112;11.662;2023-03-23T04:50:53;12.80;54.40
31379;DHT22;61664;48.112;11.662;2023-03-23T04:53:19;12.80;54.40
31379;DHT22;61664;48.112;11.662;2023-03-23T04:55:46;12.90;54.40
31379;DHT22;61664;48.112;11.662;2023-03-23T04:58:13;12.80;54.40
31379;DHT22;61664;48.112;11.662;2023-03-23T05:00:41;12.80;54.50
31379;DHT22;61664;48.112;11.662;2023-03-23T05:03:12;12.80;55.10
31379;DHT22;61664;48.112;11.662;2023-03-23T05:05:42;12.80;54.60
31379;DHT22;61664;48.112;11.662;2023-03-23T05:08:13;12.90;54.70
31379;DHT22;61664;48.112;11.662;2023-03-23T05:10:39;12.90;54.70
31379;DHT22;61664;48.112;11.662;2023-03-23T05:13:05;12.90;54.60
31379;DHT22;61664;48.112;11.662;2023-03-23T05:15:31;12.90;54.60
31379;DHT22;61664;48.112;11.662;2023-03-23T05:17:57;13.00;54.70
31379;DHT22;61664;48.112;11.662;2023-03-23T05:20:23;12.90;54.70
31379;DHT22;61664;48.112;11.662;2023-03-23T05:22:50;12.90;54.70
31379;DHT22;61664;48.112;11.662;2023-03-23T05:25:18;12.90;54.70
31379;DHT22;61664;48.112;11.662;2023-03-23T05:27:48;12.90;54.80
31379;DHT22;61664;48.112;11.662;2023-03-23T05:30:20;12.90;54.80
31379;DHT22;61664;48.112;11.662;2023-03-23T05:32:47;13.00;54.90
31379;DHT22;61664;48.112;11.662;2023-03-23T05:35:18;13.00;54.80
31379;DHT22;61664;48.112;11.662;2023-03-23T05:37:44;13.00;54.80
31379;DHT22;61664;48.112;11.662;2023-03-23T05:40:11;13.00;54.80
31379;DHT22;61664;48.112;11.662;2023-03-23T05:42:39;13.10;54.90
31379;DHT22;61664;48.112;11.662;2023-03-23T05:45:10;13.10;54.90
31379;DHT22;61664;48.112;11.662;2023-03-23T05:47:37;13.10;54.90
31379;DHT22;61664;48.112;11.662;2023-03-23T05:50:07;13.10;54.90
31379;DHT22;61664;48.112;11.662;2023-03-23T05:52:36;13.20;55.00
31379;DHT22;61664;48.112;11.662;2023-03-23T05:55:03;13.20;54.90
31379;DHT22;61664;48.112;11.662;2023-03-23T05:57:30;13.20;55.00
31379;DHT22;61664;48.112;11.662;2023-03-23T05:59:56;13.30;55.00
31379;DHT22;61664;48.112;11.662;2023-03-23T06:02:24;13.30;55.00
31379;DHT22;61664;48.112;11.662;2023-03-23T06:04:53;13.30;55.00
31379;DHT22;61664;48.112;11.662;2023-03-23T06:07:23;13.40;54.90
31379;DHT22;61664;48.112;11.662;2023-03-23T06:09:50;13.40;54.90
31379;DHT22;61664;48.112;11.662;2023-03-23T06:12:17;13.40;54.70
31379;DHT22;61664;48.112;11.662;2023-03-23T06:14:46;13.40;54.60
31379;DHT22;61664;48.112;11.662;2023-03-23T06:17:14;13.40;54.60
31379;DHT22;61664;48.112;11.662;2023-03-23T06:19:41;13.40;54.60
31379;DHT22;61664;48.112;11.662;2023-03-23T06:22:07;13.30;54.60
31379;DHT22;61664;48.112;11.662;2023-03-23T06:24:33;13.30;54.70
31379;DHT22;61664;48.112;11.662;2023-03-23T06:26:59;13.30;54.80
31379;DHT22;61664;48.112;11.662;2023-03-23T06:29:26;13.30;54.90
31379;DHT22;61664;48.112;11.662;2023-03-23T06:31:56;13.30;55.10
31379;DHT22;61664;48.112;11.662;2023-03-23T06:34:24;13.30;55.20
31379;DHT22;61664;48.112;11.662;2023-03-23T06:36:50;13.30;55.30
31379;DHT22;61664;48.112;11.662;2023-03-23T06:39:16;13.30;55.40
31379;DHT22;61664;48.112;11.662;2023-03-23T06:41:42;13.30;55.40
31379;DHT22;61664;48.112;11.662;2023-03-23T06:44:07;13.40;55.30
31379;DHT22;61664;48.112;11.662;2023-03-23T06:46:34;13.40;55.30
31379;DHT22;61664;48.112;11.662;2023-03-23T06:49:00;13.40;55.40
31379;DHT22;61664;48.112;11.662;2023-03-23T06:51:26;13.50;55.40
31379;DHT22;61664;48.112;11.662;2023-03-23T06:53:51;13.60;55.40
31379;DHT22;61664;48.112;11.662;2023-03-23T06:56:17;13.60;55.20
31379;DHT22;61664;48.112;11.662;2023-03-23T06:58:43;13.70;55.30
31379;DHT22;61664;48.112;11.662;2023-03-23T07:01:11;13.70;55.30
31379;DHT22;61664;48.112;11.662;2023-03-23T07:03:38;13.80;55.30
31379;DHT22;61664;48.112;11.662;2023-03-23T07:06:06;13.80;55.30
31379;DHT22;61664;48.112;11.662;2023-03-23T07:08:33;13.80;55.30
31379;DHT22;61664;48.112;11.662;2023-03-23T07:10:59;13.90;55.30
31379;DHT22;61664;48.112;11.662;2023-03-23T07:13:25;14.00;55.40
31379;DHT22;61664;48.112;11.662;2023-03-23T07:15:51;14.00;55.30
31379;DHT22;61664;48.112;11.662;2023-03-23T07:18:18;14.00;55.40
31379;DHT22;61664;48.112;11.662;2023-03-23T07:20:48;14.10;55.40
31379;DHT22;61664;48.112;11.662;2023-03-23T07:23:15;14.10;55.20
31379;DHT22;61664;48.112;11.662;2023-03-23T07:25:42;14.20;55.20
31379;DHT22;61664;48.112;11.662;2023-03-23T07:28:09;14.30;55.30
31379;DHT22;61664;48.112;11.662;2023-03-23T07:30:35;14.30;55.10
31379;DHT22;61664;48.112;11.662;2023-03-23T07:33:05;14.40;55.30
31379;DHT22;61664;48.112;11.662;2023-03-23T07:35:32;14.50;55.00
31379;DHT22;61664;48.112;11.662;2023-03-23T07:37:58;14.60;53.90
31379;DHT22;61664;48.112;11.662;2023-03-23T07:40:25;14.70;55.30
31379;DHT22;61664;48.112;11.662;2023-03-23T07:42:56;14.80;55.30
31379;DHT22;61664;48.112;11.662;2023-03-23T07:45:23;14.90;55.00
31379;DHT22;61664;48.112;11.662;2023-03-23T07:47:49;15.10;55.50
31379;DHT22;61664;48.112;11.662;2023-03-23T07:50:16;15.20;55.30
31379;DHT22;61664;48.112;11.662;2023-03-23T07:52:43;15.40;55.20
31379;DHT22;61664;48.112;11.662;2023-03-23T07:55:11;15.50;55.20
31379;DHT22;61664;48.112;11.662;2023-03-23T07:57:49;15.70;55.30
31379;DHT22;61664;48.112;11.662;2023-03-23T08:00:16;16.00;55.60
31379;DHT22;61664;48.112;11.662;2023-03-23T08:02:50;16.20;55.30
31379;DHT22;61664;48.112;11.662;2023-03-23T08:05:25;16.50;55.10
31379;DHT22;61664;48.112;11.662;2023-03-23T08:07:53;16.80;55.40
31379;DHT22;61664;48.112;11.662;2023-03-23T08:10:21;17.20;55.10
31379;DHT22;61664;48.112;11.662;2023-03-23T08:12:52;17.60;54.40
31379;DHT22;61664;48.112;11.662;2023-03-23T08:15:19;17.80;52.80
31379;DHT22;61664;48.112;11.662;2023-03-23T08:17:47;18.00;52.60
31379;DHT22;61664;48.112;11.662;2023-03-23T08:20:13;18.10;52.00
31379;DHT22;61664;48.112;11.662;2023-03-23T08:22:41;18.20;51.80
31379;DHT22;61664;48.112;11.662;2023-03-23T08:25:12;18.30;51.30
31379;DHT22;61664;48.112;11.662;2023-03-23T08:27:40;18.40;51.00
31379;DHT22;61664;48.112;11.662;2023-03-23T08:30:14;18.40;50.50
31379;DHT22;61664;48.112;11.662;2023-03-23T08:32:42;18.50;49.20
31379;DHT22;61664;48.112;11.662;2023-03-23T08:35:10;18.50;49.80
31379;DHT22;61664;48.112;11.662;2023-03-23T08:37:37;18.50;49.50
31379;DHT22;61664;48.112;11.662;2023-03-23T08:40:07;18.40;49.40
31379;DHT22;61664;48.112;11.662;2023-03-23T08:42:38;18.40;48.60
31379;DHT22;61664;48.112;11.662;2023-03-23T08:45:09;18.40;49.30
31379;DHT22;61664;48.112;11.662;2023-03-23T08:47:37;18.40;48.60
31379;DHT22;61664;48.112;11.662;2023-03-23T08:50:05;18.40;49.30
31379;DHT22;61664;48.112;11.662;2023-03-23T08:52:32;18.40;49.30
31379;DHT22;61664;48.112;11.662;2023-03-23T08:54:59;18.50;49.50
31379;DHT22;61664;48.112;11.662;2023-03-23T08:57:25;18.50;49.70
31379;DHT22;61664;48.112;11.662;2023-03-23T08:59:51;18.60;49.60
31379;DHT22;61664;48.112;11.662;2023-03-23T09:02:20;18.60;49.60
31379;DHT22;61664;48.112;11.662;2023-03-23T09:04:46;18.70;49.50
31379;DHT22;61664;48.112;11.662;2023-03-23T09:07:12;18.80;49.40
31379;DHT22;61664;48.112;11.662;2023-03-23T09:09:40;18.90;49.20
31379;DHT22;61664;48.112;11.662;2023-03-23T09:12:07;18.90;49.00
31379;DHT22;61664;48.112;11.662;2023-03-23T09:14:35;19.00;48.80
31379;DHT22;61664;48.112;11.662;2023-03-23T09:17:01;19.10;48.90
31379;DHT22;61664;48.112;11.662;2023-03-23T09:19:29;19.30;49.50
31379;DHT22;61664;48.112;11.662;2023-03-23T09:21:55;19.40;49.50
31379;DHT22;61664;48.112;11.662;2023-03-23T09:24:22;19.60;49.60
31379;DHT22;61664;48.112;11.662;2023-03-23T09:26:48;19.80;49.40
31379;DHT22;61664;48.112;11.662;2023-03-23T09:29:14;19.90;49.20
31379;DHT22;61664;48.112;11.662;2023-03-23T09:31:40;20.00;48.70
31379;DHT22;61664;48.112;11.662;2023-03-23T09:34:07;20.20;48.80
31379;DHT22;61664;48.112;11.662;2023-03-23T09:36:36;20.30;48.40
31379;DHT22;61664;48.112;11.662;2023-03-23T09:39:05;20.40;47.90
31379;DHT22;61664;48.112;11.662;2023-03-23T09:50:02;20.60;47.50
31379;DHT22;61664;48.112;11.662;2023-03-23T09:53:14;20.60;46.20
31379;DHT22;61664;48.112;11.662;2023-03-23T09:55:44;20.60;44.70
31379;DHT22;61664;48.112;11.662;2023-03-23T09:58:25;20.70;47.30
31379;DHT22;61664;48.112;11.662;2023-03-23T10:01:07;20.70;46.30
31379;DHT22;61664;48.112;11.662;2023-03-23T10:03:44;20.80;44.70
31379;DHT22;61664;48.112;11.662;2023-03-23T10:06:14;20.90;46.30
31379;DHT22;61664;48.112;11.662;2023-03-23T10:08:52;21.00;45.90
31379;DHT22;61664;48.112;11.662;2023-03-23T10:14:58;21.40;43.70
31379;DHT22;61664;48.112;11.662;2023-03-23T10:17:35;21.70;44.90
31379;DHT22;61664;48.112;11.662;2023-03-23T10:25:30;22.30;41.80
31379;DHT22;61664;48.112;11.662;2023-03-23T10:30:45;22.40;42.60
31379;DHT22;61664;48.112;11.662;2023-03-23T10:33:18;22.40;39.10
31379;DHT22;61664;48.112;11.662;2023-03-23T10:36:14;22.30;41.00
31379;DHT22;61664;48.112;11.662;2023-03-23T10:39:02;22.20;37.80
31379;DHT22;61664;48.112;11.662;2023-03-23T10:41:32;22.00;37.70
31379;DHT22;61664;48.112;11.662;2023-03-23T10:43:58;21.90;40.60
31379;DHT22;61664;48.112;11.662;2023-03-23T10:49:06;21.70;40.70
31379;DHT22;61664;48.112;11.662;2023-03-23T10:51:40;21.50;40.50
31379;DHT22;61664;48.112;11.662;2023-03-23T10:54:09;21.40;41.50
31379;DHT22;61664;48.112;11.662;2023-03-23T10:56:37;21.40;41.80
31379;DHT22;61664;48.112;11.662;2023-03-23T10:59:20;21.40;41.00
31379;DHT22;61664;48.112;11.662;2023-03-23T11:01:55;21.40;39.30
31379;DHT22;61664;48.112;11.662;2023-03-23T11:04:23;21.40;41.90
31379;DHT22;61664;48.112;11.662;2023-03-23T11:06:52;21.30;41.30
31379;DHT22;61664;48.112;11.662;2023-03-23T11:09:21;21.30;41.10
31379;DHT22;61664;48.112;11.662;2023-03-23T11:12:20;21.30;41.40
31379;DHT22;61664;48.112;11.662;2023-03-23T11:14:47;21.30;40.20
31379;DHT22;61664;48.112;11.662;2023-03-23T11:17:25;21.30;41.80
31379;DHT22;61664;48.112;11.662;2023-03-23T11:19:52;21.30;39.30
31379;DHT22;61664;48.112;11.662;2023-03-23T11:22:27;21.40;41.90
31379;DHT22;61664;48.112;11.662;2023-03-23T11:24:58;21.40;40.90
31379;DHT22;61664;48.112;11.662;2023-03-23T11:27:27;21.40;41.40
31379;DHT22;61664;48.112;11.662;2023-03-23T11:29:58;21.40;42.40
31379;DHT22;61664;48.112;11.662;2023-03-23T11:32:32;21.50;40.20
31379;DHT22;61664;48.112;11.662;2023-03-23T11:35:05;21.60;41.60
31379;DHT22;61664;48.112;11.662;2023-03-23T11:37:39;21.60;39.40
31379;DHT22;61664;48.112;11.662;2023-03-23T11:40:26;21.70;41.00
31379;DHT22;61664;48.112;11.662;2023-03-23T11:43:00;21.80;39.70
31379;DHT22;61664;48.112;11.662;2023-03-23T11:45:57;21.80;39.80
31379;DHT22;61664;48.112;11.662;2023-03-23T11:51:18;22.00;37.80
31379;DHT22;61664;48.112;11.662;2023-03-23T11:53:57;22.20;39.30
31379;DHT22;61664;48.112;11.662;2023-03-23T11:56:41;22.20;39.70
31379;DHT22;61664;48.112;11.662;2023-03-23T11:59:14;22.40;38.80
31379;DHT22;61664;48.112;11.662;2023-03-23T12:02:36;22.50;38.80
31379;DHT22;61664;48.112;11.662;2023-03-23T12:17:45;23.00;38.00
31379;DHT22;61664;48.112;11.662;2023-03-23T12:20:25;23.20;36.90
31379;DHT22;61664;48.112;11.662;2023-03-23T12:23:15;23.20;38.00
31379;DHT22;61664;48.112;11.662;2023-03-23T12:26:15;23.30;35.20
31379;DHT22;61664;48.112;11.662;2023-03-23T12:34:42;23.30;37.80
31379;DHT22;61664;48.112;11.662;2023-03-23T12:38:08;23.30;34.40
31379;DHT22;61664;48.112;11.662;2023-03-23T12:40:58;23.30;35.20
31379;DHT22;61664;48.112;11.662;2023-03-23T12:49:32;23.20;35.00
31379;DHT22;61664;48.112;11.662;2023-03-23T12:52:20;23.20;37.90
31379;DHT22;61664;48.112;11.662;2023-03-23T12:55:05;23.20;37.60
31379;DHT22;61664;48.112;11.662;2023-03-23T13:00:34;23.20;34.30
31379;DHT22;61664;48.112;11.662;2023-03-23T13:06:07;23.20;36.20
31379;DHT22;61664;48.112;11.662;2023-03-23T13:08:42;23.20;35.80
31379;DHT22;61664;48.112;11.662;2023-03-23T13:11:32;23.20;36.10
31379;DHT22;61664;48.112;11.662;2023-03-23T13:14:16;23.20;34.70
31379;DHT22;61664;48.112;11.662;2023-03-23T13:17:20;23.20;35.70
31379;DHT22;61664;48.112;11.662;2023-03-23T13:20:14;23.20;31.50
31379;DHT22;61664;48.112;11.662;2023-03-23T13:28:21;22.90;33.00
31379;DHT22;61664;48.112;11.662;2023-03-23T13:31:11;22.80;35.20
31379;DHT22;61664;48.112;11.662;2023-03-23T13:33:39;22.70;33.00
31379;DHT22;61664;48.112;11.662;2023-03-23T13:36:41;22.60;35.40
31379;DHT22;61664;48.112;11.662;2023-03-23T13:39:20;22.50;33.90
31379;DHT22;61664;48.112;11.662;2023-03-23T13:50:24;22.50;34.80
31379;DHT22;61664;48.112;11.662;2023-03-23T13:52:54;22.50;34.60
31379;DHT22;61664;48.112;11.662;2023-03-23T14:03:16;22.40;35.40
31379;DHT22;61664;48.112;11.662;2023-03-23T14:16:19;22.80;36.10
31379;DHT22;61664;48.112;11.662;2023-03-23T14:18:56;22.80;37.10
31379;DHT22;61664;48.112;11.662;2023-03-23T14:21:36;22.90;35.30
31379;DHT22;61664;48.112;11.662;2023-03-23T14:24:25;22.80;35.90
31379;DHT22;61664;48.112;11.662;2023-03-23T14:27:11;22.80;35.70
31379;DHT22;61664;48.112;11.662;2023-03-23T14:29:40;22.80;36.80
31379;DHT22;61664;48.112;11.662;2023-03-23T14:32:18;22.80;38.10
31379;DHT22;61664;48.112;11.662;2023-03-23T14:34:52;22.80;36.90
31379;DHT22;61664;48.112;11.662;2023-03-23T14:37:20;22.80;37.60
31379;DHT22;61664;48.112;11.662;2023-03-23T14:39:49;22.80;37.60
31379;DHT22;61664;48.112;11.662;2023-03-23T14:42:24;22.70;37.60
31379;DHT22;61664;48.112;11.662;2023-03-23T14:44:57;22.70;36.90
31379;DHT22;61664;48.112;11.662;2023-03-23T14:47:34;22.60;37.60
31379;DHT22;61664;48.112;11.662;2023-03-23T14:50:05;22.60;37.30
31379;DHT22;61664;48.112;11.662;2023-03-23T14:52:47;22.60;37.60
31379;DHT22;61664;48.112;11.662;2023-03-23T14:55:19;22.50;37.20
31379;DHT22;61664;48.112;11.662;2023-03-23T14:57:47;22.50;36.90
31379;DHT22;61664;48.112;11.662;2023-03-23T15:00:28;22.40;38.40
31379;DHT22;61664;48.112;11.662;2023-03-23T15:03:00;22.40;36.30
31379;DHT22;61664;48.112;11.662;2023-03-23T15:05:35;22.30;37.70
31379;DHT22;61664;48.112;11.662;2023-03-23T15:08:18;22.30;37.70
31379;DHT22;61664;48.112;11.662;2023-03-23T15:13:46;22.10;36.70
31379;DHT22;61664;48.112;11.662;2023-03-23T15:16:27;22.00;37.60
31379;DHT22;61664;48.112;11.662;2023-03-23T15:19:20;21.90;36.30
31379;DHT22;61664;48.112;11.662;2023-03-23T15:27:58;21.50;37.20
31379;DHT22;61664;48.112;11.662;2023-03-23T15:30:51;21.40;38.60
31379;DHT22;61664;48.112;11.662;2023-03-23T15:33:19;21.40;37.20
31379;DHT22;61664;48.112;11.662;2023-03-23T15:35:54;21.30;38.80
31379;DHT22;61664;48.112;11.662;2023-03-23T15:38:28;21.20;38.60
31379;DHT22;61664;48.112;11.662;2023-03-23T15:40:58;21.20;37.80
31379;DHT22;61664;48.112;11.662;2023-03-23T15:43:30;21.10;38.80
31379;DHT22;61664;48.112;11.662;2023-03-23T15:49:08;21.00;38.40
31379;DHT22;61664;48.112;11.662;2023-03-23T15:51:36;20.90;37.60
31379;DHT22;61664;48.112;11.662;2023-03-23T15:54:02;20.80;38.90
31379;DHT22;61664;48.112;11.662;2023-03-23T15:56:28;20.70;39.00
31379;DHT22;61664;48.112;11.662;2023-03-23T15:58:57;20.70;39.40
31379;DHT22;61664;48.112;11.662;2023-03-23T16:01:27;20.70;39.60
31379;DHT22;61664;48.112;11.662;2023-03-23T16:04:08;20.70;37.90
31379;DHT22;61664;48.112;11.662;2023-03-23T16:06:36;20.60;38.60
31379;DHT22;61664;48.112;11.662;2023-03-23T16:09:04;20.50;39.50
31379;DHT22;61664;48.112;11.662;2023-03-23T16:11:32;20.40;39.40
31379;DHT22;61664;48.112;11.662;2023-03-23T16:13:59;20.30;39.50
31379;DHT22;61664;48.112;11.662;2023-03-23T16:16:38;20.30;39.80
31379;DHT22;61664;48.112;11.662;2023-03-23T16:19:11;20.20;39.10
31379;DHT22;61664;48.112;11.662;2023-03-23T16:21:39;20.10;40.10
31379;DHT22;61664;48.112;11.662;2023-03-23T16:24:08;20.10;40.50
31379;DHT22;61664;48.112;11.662;2023-03-23T16:26:36;20.00;40.10
31379;DHT22;61664;48.112;11.662;2023-03-23T16:29:13;19.90;41.00
31379;DHT22;61664;48.112;11.662;2023-03-23T16:32:02;19.90;40.50
31379;DHT22;61664;48.112;11.662;2023-03-23T16:34:29;19.80;41.70
31379;DHT22;61664;48.112;11.662;2023-03-23T16:36:59;19.80;41.80
31379;DHT22;61664;48.112;11.662;2023-03-23T16:39:26;19.70;42.00
31379;DHT22;61664;48.112;11.662;2023-03-23T16:41:53;19.60;42.40
31379;DHT22;61664;48.112;11.662;2023-03-23T16:44:20;19.50;42.50
31379;DHT22;61664;48.112;11.662;2023-03-23T16:46:47;19.40;43.00
31379;DHT22;61664;48.112;11.662;2023-03-23T16:49:14;19.30;43.50
31379;DHT22;61664;48.112;11.662;2023-03-23T16:51:41;19.20;43.80
31379;DHT22;61664;48.112;11.662;2023-03-23T16:54:08;19.10;43.80
31379;DHT22;61664;48.112;11.662;2023-03-23T16:56:36;18.90;44.30
31379;DHT22;61664;48.112;11.662;2023-03-23T16:59:04;18.80;45.20
31379;DHT22;61664;48.112;11.662;2023-03-23T17:01:31;18.70;45.90
31379;DHT22;61664;48.112;11.662;2023-03-23T17:03:58;18.60;47.10
31379;DHT22;61664;48.112;11.662;2023-03-23T17:06:25;18.50;48.10
31379;DHT22;61664;48.112;11.662;2023-03-23T17:08:51;18.40;48.80
31379;DHT22;61664;48.112;11.662;2023-03-23T17:11:18;18.40;49.20
31379;DHT22;61664;48.112;11.662;2023-03-23T17:13:45;18.30;49.80
31379;DHT22;61664;48.112;11.662;2023-03-23T17:16:12;18.30;50.30
31379;DHT22;61664;48.112;11.662;2023-03-23T17:18:39;18.30;50.90
31379;DHT22;61664;48.112;11.662;2023-03-23T17:21:06;18.30;51.50
31379;DHT22;61664;48.112;11.662;2023-03-23T17:23:33;18.30;51.80
31379;DHT22;61664;48.112;11.662;2023-03-23T17:26:00;18.30;52.00
31379;DHT22;61664;48.112;11.662;2023-03-23T17:28:27;18.30;52.20
31379;DHT22;61664;48.112;11.662;2023-03-23T17:30:54;18.30;52.50
31379;DHT22;61664;48.112;11.662;2023-03-23T17:33:21;18.30;52.60
31379;DHT22;61664;48.112;11.662;2023-03-23T17:35:48;18.30;52.80
31379;DHT22;61664;48.112;11.662;2023-03-23T17:38:17;18.30;52.70
31379;DHT22;61664;48.112;11.662;2023-03-23T17:40:44;18.30;52.50
31379;DHT22;61664;48.112;11.662;2023-03-23T17:43:12;18.30;52.10